KADG

Lenawee County Airport

Adrian, Michigan, USA
METAR KADG 251353Z AUTO 21008KT 10SM OVC007 21/20 A2997 RMK AO2 RAE05 CIG 005V010 SLP147 P0000 T02060200 TSNO
Observed Flight Rules
Sep-25 @ 13:53 UTC (an hour ago) Instrument Flight Rules
Wind Visibility Clouds
210° at 8 knots 10 miles
  • Overcast at 700' AGL
Temperatures Readings Precipitation
Current 21°C / 70°F
Dewpoint 20°C / 68°F
Humidity 94%
Altimeter 29.97" Hg
Pressure 1014.7 hPa
Elevation 241
Current Rain 0.005
METAR KADG 251353Z AUTO 21008KT 10SM OVC007 21/20 A2997 RMK AO2 RAE05 CIG 005V010 SLP147 P0000 T02060200 TSNO
Observed Flight Rules
Sep-25 @ 13:53 UTC
(an hour ago)
IFR
Wind Visibility
210° at 8 knots 10 miles
Clouds
  • Overcast at 700' AGL
Temperature Dewpoint
21°C / 70°F 20°C / 68°F
Humidity Altimeter Pressure
94% 29.97" Hg 1014.7 hPa
Current Rain
0.005